createdAt,value
2022-11-21T00:00:18.117Z,13.61
2022-11-21T00:10:19.620Z,13.61
2022-11-21T00:20:21.651Z,13.54
2022-11-21T00:30:23.163Z,13.66
2022-11-21T00:40:24.687Z,13.68
2022-11-21T00:50:26.058Z,13.76
2022-11-21T01:00:27.586Z,13.70
2022-11-21T01:10:29.186Z,13.52
2022-11-21T01:20:30.593Z,13.37
2022-11-21T01:30:32.023Z,13.44
2022-11-21T01:40:40.700Z,13.37
2022-11-21T01:50:42.147Z,13.37
2022-11-21T02:00:43.584Z,13.09
2022-11-21T02:10:54.327Z,13.03
2022-11-21T02:21:28.420Z,12.93
2022-11-21T02:31:29.880Z,12.88
2022-11-21T02:41:31.270Z,12.95
2022-11-21T02:51:32.785Z,12.87
2022-11-21T03:01:34.163Z,12.98
2022-11-21T03:11:35.616Z,12.98
2022-11-21T03:21:37.014Z,12.97
2022-11-21T03:31:38.423Z,13.01
2022-11-21T03:41:39.811Z,12.84
2022-11-21T03:51:41.508Z,12.88
2022-11-21T04:01:43.116Z,12.99
2022-11-21T04:11:44.805Z,12.86
2022-11-21T04:21:46.348Z,12.84
2022-11-21T04:31:47.781Z,12.82
2022-11-21T04:41:49.531Z,12.67
2022-11-21T04:51:52.180Z,12.74
2022-11-21T05:01:53.774Z,12.66
2022-11-21T05:12:13.735Z,12.60
2022-11-21T05:22:15.292Z,12.66
2022-11-21T05:32:16.660Z,12.82
2022-11-21T05:42:38.007Z,12.84
2022-11-21T05:52:39.378Z,13.11
2022-11-21T06:03:03.832Z,13.17
2022-11-21T06:13:21.790Z,13.20
2022-11-21T06:23:23.186Z,13.34
2022-11-21T06:33:24.572Z,13.30
2022-11-21T06:43:25.969Z,13.42
2022-11-21T06:53:27.496Z,13.51
2022-11-21T07:03:28.930Z,13.58
2022-11-21T07:13:30.319Z,13.53
2022-11-21T07:23:31.991Z,13.58
2022-11-21T07:33:33.357Z,13.61
2022-11-21T07:43:34.732Z,13.74
2022-11-21T07:53:36.131Z,13.61
2022-11-21T08:03:37.526Z,13.72
2022-11-21T08:13:38.908Z,13.75
2022-11-21T08:23:40.290Z,13.91
2022-11-21T08:33:41.647Z,13.97
2022-11-21T08:43:43.129Z,14.04
2022-11-21T08:53:44.582Z,14.04
2022-11-21T09:03:46.040Z,14.08
2022-11-21T09:14:07.494Z,14.17
2022-11-21T09:24:08.909Z,14.21
2022-11-21T09:34:10.308Z,14.23
2022-11-21T09:44:44.302Z,14.30
2022-11-21T09:54:51.079Z,14.44
2022-11-21T10:04:52.503Z,14.49
2022-11-21T10:15:20.120Z,14.61
2022-11-21T10:25:27.185Z,14.66
2022-11-21T10:35:39.817Z,14.73
2022-11-21T10:45:41.840Z,14.74
2022-11-21T10:55:56.039Z,14.73
2022-11-21T11:05:58.157Z,14.77
2022-11-21T11:16:11.655Z,14.75
2022-11-21T11:26:27.558Z,14.84
2022-11-21T11:36:44.439Z,15.03
2022-11-21T11:47:14.045Z,15.24
2022-11-21T11:57:15.429Z,15.32
2022-11-21T12:18:04.378Z,15.38
2022-11-21T12:28:10.021Z,15.43
2022-11-21T12:38:35.023Z,15.51
2022-11-21T12:48:55.091Z,15.45
2022-11-21T12:58:56.474Z,15.46
2022-11-21T13:08:58.931Z,15.44
2022-11-21T13:19:00.316Z,15.41
2022-11-21T13:29:08.962Z,15.46
2022-11-21T13:39:30.777Z,15.37
2022-11-21T13:49:34.643Z,15.35
2022-11-21T13:59:52.164Z,15.22
2022-11-21T14:09:55.336Z,15.04
2022-11-21T14:19:57.664Z,15.00
2022-11-21T14:30:01.567Z,14.88
2022-11-21T14:40:04.238Z,14.72
2022-11-21T14:50:07.559Z,14.60
2022-11-21T15:00:24.587Z,14.45
2022-11-21T15:10:33.870Z,14.27
2022-11-21T15:20:35.625Z,14.10
2022-11-21T15:30:45.258Z,13.91
2022-11-21T15:41:00.100Z,13.77
2022-11-21T15:51:01.660Z,13.63
2022-11-21T16:01:03.151Z,13.48
2022-11-21T16:11:04.718Z,13.39
2022-11-21T16:21:07.127Z,13.26
2022-11-21T16:31:20.583Z,13.21
2022-11-21T16:41:22.578Z,13.12
2022-11-21T16:51:23.954Z,13.06
2022-11-21T17:01:26.209Z,13.00
2022-11-21T17:11:29.333Z,12.94
2022-11-21T17:21:31.230Z,12.84
2022-11-21T17:31:32.715Z,12.78
2022-11-21T17:41:34.228Z,12.77
2022-11-21T17:51:37.646Z,12.73
2022-11-21T18:01:39.192Z,12.69
2022-11-21T18:11:40.953Z,12.68
2022-11-21T18:21:42.384Z,12.62
2022-11-21T18:31:43.992Z,12.59
2022-11-21T18:41:45.471Z,12.51
2022-11-21T18:51:48.342Z,12.47
2022-11-21T19:01:50.153Z,12.43
2022-11-21T19:11:51.743Z,12.40
2022-11-21T19:21:53.566Z,12.37
2022-11-21T19:31:55.834Z,12.29
2022-11-21T19:41:57.241Z,12.27
2022-11-21T19:51:58.635Z,12.23
2022-11-21T20:02:01.061Z,12.18
2022-11-21T20:12:03.258Z,12.16
2022-11-21T20:22:04.680Z,12.17
2022-11-21T20:32:06.072Z,12.18
2022-11-21T20:42:08.277Z,12.11
2022-11-21T20:53:43.939Z,12.09
2022-11-21T21:02:31.218Z,12.12
2022-11-21T21:12:32.890Z,12.26
2022-11-21T21:22:34.589Z,12.38
2022-11-21T21:32:36.053Z,12.46
2022-11-21T21:42:37.891Z,12.59
2022-11-21T21:52:39.460Z,12.60
2022-11-21T22:02:41.150Z,12.75
2022-11-21T22:12:44.220Z,12.77
2022-11-21T22:22:45.860Z,12.74
2022-11-21T22:32:47.270Z,12.74
2022-11-21T22:42:48.759Z,12.75
2022-11-21T22:52:50.205Z,12.69
2022-11-21T23:02:51.878Z,12.61
2022-11-21T23:12:53.352Z,12.55
2022-11-21T23:22:56.554Z,12.45
2022-11-21T23:32:58.124Z,12.45
2022-11-21T23:42:59.660Z,12.39
2022-11-21T23:53:01.290Z,12.38
